GMMX/RAK METAR and TAF weather

Enter ICAO airport designator
Station Type Date Time Source
GMMX METAR 2018/12/13 00:00 UTC NOAA

GMMX 130000Z 00000KT 8000 NSC 09/06 Q1023 NOSIG


Station Type Date Time Source
GMMX Decoded METAR 2018/12/13 00:00 UTC NOAA

Marrakech, Morocco (GMMX) 31-37N 008-02W 466M
Dec 12, 2018 - 07:00 PM EST / 2018.12.13 0000 UTC
Wind: Calm:0
Visibility: 4 mile(s):0
Temperature: 48 F (9 C)
Dew Point: 42 F (6 C)
Relative Humidity: 81%
Pressure (altimeter): 30.21 in. Hg (1023 hPa)
ob: GMMX 130000Z 00000KT 8000 NSC 09/06 Q1023 NOSIG
cycle: 0

Station Type Date Time Source
GMMX TAF 2018/12/12 18:33 UTC NOAA

TAF TAF GMMX 121700Z 1218/1324 24006KT 8000 NSC
TEMPO 1305/1309 3000 BR BKN010
BECMG 1315/1318 30015KT BKN023 SCT090
TEMPO 1318/1324 -RA


Example: see airport list